Enschede Airport Twente

EHTW · Overijssel, 荷兰

罗盘
风向 的 Enschede Airport Twente 5/23
风: 0 kt, 0 beaufort


改变
0 1.000 2.000 3.000 4.000 5.000
BKN 500 ft
METAR EDDG 051450Z AUTO 00000KT 9999 -RA BKN005 02/01 Q1018 TEMPO BKN004

METAR Enschede Airport Twente - EHTW/ENS

Enschede Airport Twente是,荷兰中的中型机场。 该机场有一条跑道: 5/23. 该领域的国际民航组织标志是EHTW 它的国际航空运输协会代码是ENS.

这份报告是针对2022年12月5日 15:50, 当地时间在Münster Osnabrück Airport进行的。

机场观察

可变方向的风很小或没有风。

可见度为10 km 或者更多。

有碎云在500 ft的高度。 破损或更高的上限为500 ft。

当前天气为光 雨。 温度和风寒是2 °C。 露点为1 °C,相对湿度为93%。 海平面上的气压为1018 hPa (QNH)。

发展趋势

  • 暂时的

    可变方向的风很小或没有。 碎云在400 ft的高度.

白天

今天,太阳从08:24升起,在16:21降落。 这适用于Enschede Airport Twente,世界夏令时可能有所不同。 当地时间与世界标准时间之间的时差为+1 小时。 当前,没有夏令时有效。

公司介绍

我们没有关于这个机场的公司信息。

体会

到Vliegles.nl去找飞行课程,跳伞和其他飞行体验。 浏览页面,了解Enschede Airport Twente附近所有可用的活动。 你也可以使用搜索功能来寻找你所在地附近的特定飞行课程、跳伞或其他飞行体验。

跑道

Id 标题 侧风 逆风 侧风 %
5/23 056°-236°

逆风成分最大的方向会被突出显示,并用于横风计算。 这并不一定意味着这个方向在使用。

乌云

500 ft BKN 碎云
400 ft BKN 暂时的 碎云

温度 & 天气

天气 光 雨
温度 2 °C
露点 1 °C
相对湿度 93%
Kp-index 0 (0-9)

白天

日出
08:20
中午
12:19
日落
16:18 (8m)

小工具

你想在你的网站上有一个关于Enschede Airport Twente的当前航空天气(METAR)的小部件吗?

显示HTML代码

我们和第三方通过cookies跟踪您在我们网站上的互联网行为。如果你继续,我们认为你同意我们的饼干政策